sensor_id;sensor_type;location;lat;lon;timestamp;pressure;altitude;pressure_sealevel;temperature;humidity
79129;BME280;68529;43.286;23.360;2024-01-07T00:01:54;97857.06;;;7.38;62.91
79129;BME280;68529;43.286;23.360;2024-01-07T00:04:20;97860.88;;;7.31;63.11
79129;BME280;68529;43.286;23.360;2024-01-07T00:06:46;97851.91;;;7.37;63.07
79129;BME280;68529;43.286;23.360;2024-01-07T00:09:11;97846.53;;;7.40;63.10
79129;BME280;68529;43.286;23.360;2024-01-07T00:11:40;97845.38;;;7.47;63.25
79129;BME280;68529;43.286;23.360;2024-01-07T00:14:06;97848.25;;;7.41;63.35
79129;BME280;68529;43.286;23.360;2024-01-07T00:16:31;97830.22;;;7.35;63.31
79129;BME280;68529;43.286;23.360;2024-01-07T00:18:57;97831.28;;;7.31;63.58
79129;BME280;68529;43.286;23.360;2024-01-07T00:21:23;97838.75;;;7.20;63.27
79129;BME280;68529;43.286;23.360;2024-01-07T00:23:48;97833.53;;;7.20;63.50
79129;BME280;68529;43.286;23.360;2024-01-07T00:26:13;97825.81;;;7.17;63.63
79129;BME280;68529;43.286;23.360;2024-01-07T00:28:39;97831.81;;;6.98;63.31
79129;BME280;68529;43.286;23.360;2024-01-07T00:31:04;97848.06;;;7.05;64.04
79129;BME280;68529;43.286;23.360;2024-01-07T00:33:34;97853.69;;;7.16;63.73
79129;BME280;68529;43.286;23.360;2024-01-07T00:36:00;97851.00;;;7.18;63.58
79129;BME280;68529;43.286;23.360;2024-01-07T00:38:25;97849.31;;;7.17;64.16
79129;BME280;68529;43.286;23.360;2024-01-07T00:40:50;97838.22;;;7.12;64.03
79129;BME280;68529;43.286;23.360;2024-01-07T00:43:16;97840.63;;;6.96;64.34
79129;BME280;68529;43.286;23.360;2024-01-07T00:45:41;97838.78;;;6.98;64.27
79129;BME280;68529;43.286;23.360;2024-01-07T00:48:07;97825.69;;;6.99;64.48
79129;BME280;68529;43.286;23.360;2024-01-07T00:50:32;97826.59;;;6.98;64.52
79129;BME280;68529;43.286;23.360;2024-01-07T00:52:57;97828.09;;;7.04;64.37
79129;BME280;68529;43.286;23.360;2024-01-07T00:55:23;97822.91;;;6.84;64.30
79129;BME280;68529;43.286;23.360;2024-01-07T00:57:49;97815.78;;;6.87;64.93
79129;BME280;68529;43.286;23.360;2024-01-07T01:00:15;97808.19;;;7.01;64.61
79129;BME280;68529;43.286;23.360;2024-01-07T01:02:40;97812.91;;;6.93;64.61
79129;BME280;68529;43.286;23.360;2024-01-07T01:05:06;97796.09;;;7.00;64.43
79129;BME280;68529;43.286;23.360;2024-01-07T01:07:32;97791.28;;;7.10;64.38
79129;BME280;68529;43.286;23.360;2024-01-07T01:09:58;97802.53;;;6.92;65.15
79129;BME280;68529;43.286;23.360;2024-01-07T01:12:23;97781.44;;;6.76;65.36
79129;BME280;68529;43.286;23.360;2024-01-07T01:14:49;97782.16;;;6.60;66.07
79129;BME280;68529;43.286;23.360;2024-01-07T01:17:14;97770.13;;;6.77;65.93
79129;BME280;68529;43.286;23.360;2024-01-07T01:19:40;97757.97;;;6.96;65.54
79129;BME280;68529;43.286;23.360;2024-01-07T01:22:05;97748.56;;;6.92;65.31
79129;BME280;68529;43.286;23.360;2024-01-07T01:24:30;97749.63;;;6.88;65.35
79129;BME280;68529;43.286;23.360;2024-01-07T01:26:56;97758.81;;;6.97;64.96
79129;BME280;68529;43.286;23.360;2024-01-07T01:29:21;97755.44;;;6.95;64.96
79129;BME280;68529;43.286;23.360;2024-01-07T01:31:46;97754.84;;;6.88;65.21
79129;BME280;68529;43.286;23.360;2024-01-07T01:34:12;97752.09;;;6.91;64.86
79129;BME280;68529;43.286;23.360;2024-01-07T01:36:37;97740.91;;;6.89;65.33
79129;BME280;68529;43.286;23.360;2024-01-07T01:39:02;97738.06;;;6.94;65.13
79129;BME280;68529;43.286;23.360;2024-01-07T01:41:28;97737.22;;;6.93;64.88
79129;BME280;68529;43.286;23.360;2024-01-07T01:43:57;97731.09;;;6.94;65.39
79129;BME280;68529;43.286;23.360;2024-01-07T01:46:23;97718.91;;;6.95;64.94
79129;BME280;68529;43.286;23.360;2024-01-07T01:48:48;97731.38;;;6.68;65.22
79129;BME280;68529;43.286;23.360;2024-01-07T01:51:14;97718.84;;;6.76;65.59
79129;BME280;68529;43.286;23.360;2024-01-07T01:53:39;97721.31;;;6.59;65.53
79129;BME280;68529;43.286;23.360;2024-01-07T01:56:05;97714.22;;;6.63;65.36
79129;BME280;68529;43.286;23.360;2024-01-07T01:58:32;97709.34;;;6.75;65.55
79129;BME280;68529;43.286;23.360;2024-01-07T02:00:58;97705.97;;;6.92;65.30
79129;BME280;68529;43.286;23.360;2024-01-07T02:03:24;97695.47;;;6.93;64.97
79129;BME280;68529;43.286;23.360;2024-01-07T02:05:50;97685.28;;;6.87;64.76
79129;BME280;68529;43.286;23.360;2024-01-07T02:08:18;97675.06;;;6.83;64.79
79129;BME280;68529;43.286;23.360;2024-01-07T02:10:43;97682.03;;;6.82;65.36
79129;BME280;68529;43.286;23.360;2024-01-07T02:13:10;97670.06;;;6.78;65.08
79129;BME280;68529;43.286;23.360;2024-01-07T02:15:35;97674.19;;;6.43;65.68
79129;BME280;68529;43.286;23.360;2024-01-07T02:18:01;97675.56;;;6.32;66.19
79129;BME280;68529;43.286;23.360;2024-01-07T02:20:26;97670.47;;;6.29;66.29
79129;BME280;68529;43.286;23.360;2024-01-07T02:22:52;97656.94;;;6.41;66.13
79129;BME280;68529;43.286;23.360;2024-01-07T02:25:18;97655.75;;;6.48;65.58
79129;BME280;68529;43.286;23.360;2024-01-07T02:27:44;97655.75;;;6.48;66.03
79129;BME280;68529;43.286;23.360;2024-01-07T02:30:10;97654.97;;;6.46;66.10
79129;BME280;68529;43.286;23.360;2024-01-07T02:32:35;97659.28;;;6.47;66.06
79129;BME280;68529;43.286;23.360;2024-01-07T02:35:03;97668.25;;;6.40;65.50
79129;BME280;68529;43.286;23.360;2024-01-07T02:37:28;97662.78;;;6.46;65.90
79129;BME280;68529;43.286;23.360;2024-01-07T02:39:54;97665.19;;;6.51;66.04
79129;BME280;68529;43.286;23.360;2024-01-07T02:42:19;97668.66;;;6.51;66.04
79129;BME280;68529;43.286;23.360;2024-01-07T02:44:45;97666.03;;;6.51;66.15
79129;BME280;68529;43.286;23.360;2024-01-07T02:47:10;97648.84;;;6.47;66.17
79129;BME280;68529;43.286;23.360;2024-01-07T02:49:35;97639.09;;;6.51;65.97
79129;BME280;68529;43.286;23.360;2024-01-07T02:52:01;97626.59;;;6.59;66.20
79129;BME280;68529;43.286;23.360;2024-01-07T02:54:26;97605.53;;;6.63;65.96
79129;BME280;68529;43.286;23.360;2024-01-07T02:56:51;97602.19;;;6.60;65.82
79129;BME280;68529;43.286;23.360;2024-01-07T02:59:17;97599.66;;;6.58;65.82
79129;BME280;68529;43.286;23.360;2024-01-07T03:01:42;97592.97;;;6.53;66.38
79129;BME280;68529;43.286;23.360;2024-01-07T03:04:10;97596.97;;;6.41;66.44
79129;BME280;68529;43.286;23.360;2024-01-07T03:06:35;97588.00;;;6.28;66.46
79129;BME280;68529;43.286;23.360;2024-01-07T03:09:01;97590.19;;;6.37;66.63
79129;BME280;68529;43.286;23.360;2024-01-07T03:11:26;97607.16;;;6.27;66.57
79129;BME280;68529;43.286;23.360;2024-01-07T03:13:51;97613.13;;;6.09;67.39
79129;BME280;68529;43.286;23.360;2024-01-07T03:16:21;97605.44;;;6.26;67.31
79129;BME280;68529;43.286;23.360;2024-01-07T03:18:46;97598.50;;;6.45;66.80
79129;BME280;68529;43.286;23.360;2024-01-07T03:21:18;97591.00;;;6.58;66.50
79129;BME280;68529;43.286;23.360;2024-01-07T03:23:44;97569.13;;;6.60;66.58
79129;BME280;68529;43.286;23.360;2024-01-07T03:26:10;97558.78;;;6.59;66.21
79129;BME280;68529;43.286;23.360;2024-01-07T03:28:35;97565.25;;;6.50;66.22
79129;BME280;68529;43.286;23.360;2024-01-07T03:31:08;97561.84;;;6.48;66.38
79129;BME280;68529;43.286;23.360;2024-01-07T03:33:33;97564.81;;;6.59;66.42
79129;BME280;68529;43.286;23.360;2024-01-07T03:35:59;97565.19;;;6.70;66.62
79129;BME280;68529;43.286;23.360;2024-01-07T03:38:24;97552.13;;;6.70;66.12
79129;BME280;68529;43.286;23.360;2024-01-07T03:40:49;97550.59;;;6.66;65.92
79129;BME280;68529;43.286;23.360;2024-01-07T03:43:15;97544.63;;;6.64;66.39
79129;BME280;68529;43.286;23.360;2024-01-07T03:45:40;97545.25;;;6.69;66.01
79129;BME280;68529;43.286;23.360;2024-01-07T03:48:06;97538.91;;;6.75;66.49
79129;BME280;68529;43.286;23.360;2024-01-07T03:50:32;97530.84;;;6.79;65.90
79129;BME280;68529;43.286;23.360;2024-01-07T03:52:58;97533.47;;;6.79;66.32
79129;BME280;68529;43.286;23.360;2024-01-07T03:55:23;97527.19;;;6.83;66.39
79129;BME280;68529;43.286;23.360;2024-01-07T03:57:48;97530.72;;;6.82;65.94
79129;BME280;68529;43.286;23.360;2024-01-07T04:00:14;97532.69;;;6.77;66.47
79129;BME280;68529;43.286;23.360;2024-01-07T04:02:39;97525.22;;;6.88;65.89
79129;BME280;68529;43.286;23.360;2024-01-07T04:05:05;97519.63;;;6.96;65.85
79129;BME280;68529;43.286;23.360;2024-01-07T04:07:30;97514.88;;;7.04;65.98
79129;BME280;68529;43.286;23.360;2024-01-07T04:09:56;97505.91;;;7.10;65.58
79129;BME280;68529;43.286;23.360;2024-01-07T04:12:21;97506.53;;;7.15;65.62
79129;BME280;68529;43.286;23.360;2024-01-07T04:14:47;97499.34;;;7.20;65.25
79129;BME280;68529;43.286;23.360;2024-01-07T04:17:12;97495.78;;;7.21;65.54
79129;BME280;68529;43.286;23.360;2024-01-07T04:19:38;97481.34;;;7.14;65.51
79129;BME280;68529;43.286;23.360;2024-01-07T04:22:03;97485.16;;;7.07;65.30
79129;BME280;68529;43.286;23.360;2024-01-07T04:24:29;97484.94;;;6.94;65.56
79129;BME280;68529;43.286;23.360;2024-01-07T04:26:54;97487.88;;;6.69;66.39
79129;BME280;68529;43.286;23.360;2024-01-07T04:29:19;97485.13;;;6.72;66.02
79129;BME280;68529;43.286;23.360;2024-01-07T04:31:45;97482.97;;;6.80;66.56
79129;BME280;68529;43.286;23.360;2024-01-07T04:34:10;97484.88;;;6.77;66.48
79129;BME280;68529;43.286;23.360;2024-01-07T04:36:35;97480.88;;;6.70;66.37
79129;BME280;68529;43.286;23.360;2024-01-07T04:39:01;97477.97;;;6.76;66.40
79129;BME280;68529;43.286;23.360;2024-01-07T04:41:26;97481.00;;;6.85;66.51
79129;BME280;68529;43.286;23.360;2024-01-07T04:43:51;97467.50;;;6.94;66.01
79129;BME280;68529;43.286;23.360;2024-01-07T04:46:17;97467.28;;;6.99;66.06
79129;BME280;68529;43.286;23.360;2024-01-07T04:48:43;97464.53;;;7.02;65.63
79129;BME280;68529;43.286;23.360;2024-01-07T04:51:08;97466.28;;;7.01;66.21
79129;BME280;68529;43.286;23.360;2024-01-07T04:53:33;97467.38;;;6.97;66.20
79129;BME280;68529;43.286;23.360;2024-01-07T04:55:59;97466.75;;;6.74;66.66
79129;BME280;68529;43.286;23.360;2024-01-07T04:58:24;97466.16;;;6.50;67.17
79129;BME280;68529;43.286;23.360;2024-01-07T05:00:50;97465.44;;;6.65;66.99
79129;BME280;68529;43.286;23.360;2024-01-07T05:03:15;97463.41;;;6.72;66.72
79129;BME280;68529;43.286;23.360;2024-01-07T05:05:40;97469.69;;;6.49;67.50
79129;BME280;68529;43.286;23.360;2024-01-07T05:08:06;97464.25;;;6.54;67.49
79129;BME280;68529;43.286;23.360;2024-01-07T05:10:32;97464.72;;;6.62;67.41
79129;BME280;68529;43.286;23.360;2024-01-07T05:12:57;97461.50;;;6.75;67.01
79129;BME280;68529;43.286;23.360;2024-01-07T05:15:23;97460.03;;;6.87;66.96
79129;BME280;68529;43.286;23.360;2024-01-07T05:17:48;97461.72;;;6.88;66.56
79129;BME280;68529;43.286;23.360;2024-01-07T05:20:17;97454.47;;;6.94;66.86
79129;BME280;68529;43.286;23.360;2024-01-07T05:22:42;97449.16;;;6.96;66.67
79129;BME280;68529;43.286;23.360;2024-01-07T05:25:08;97447.69;;;6.90;66.71
79129;BME280;68529;43.286;23.360;2024-01-07T05:27:34;97450.91;;;6.95;67.09
79129;BME280;68529;43.286;23.360;2024-01-07T05:29:59;97449.25;;;6.94;67.33
79129;BME280;68529;43.286;23.360;2024-01-07T05:32:25;97448.88;;;7.02;67.33
79129;BME280;68529;43.286;23.360;2024-01-07T05:34:50;97452.69;;;7.12;67.08
79129;BME280;68529;43.286;23.360;2024-01-07T05:37:15;97457.56;;;7.20;66.85
79129;BME280;68529;43.286;23.360;2024-01-07T05:39:41;97453.09;;;7.22;66.53
79129;BME280;68529;43.286;23.360;2024-01-07T05:42:06;97446.81;;;7.26;66.99
79129;BME280;68529;43.286;23.360;2024-01-07T05:44:31;97447.66;;;7.26;67.15
79129;BME280;68529;43.286;23.360;2024-01-07T05:46:57;97449.44;;;7.26;67.32
79129;BME280;68529;43.286;23.360;2024-01-07T05:49:22;97445.88;;;7.27;67.29
79129;BME280;68529;43.286;23.360;2024-01-07T05:51:47;97441.38;;;7.30;67.18
79129;BME280;68529;43.286;23.360;2024-01-07T05:54:13;97446.66;;;7.29;66.88
79129;BME280;68529;43.286;23.360;2024-01-07T05:56:41;97447.28;;;7.17;67.33
79129;BME280;68529;43.286;23.360;2024-01-07T05:59:07;97445.22;;;6.87;68.14
79129;BME280;68529;43.286;23.360;2024-01-07T06:01:33;97448.34;;;6.77;68.52
79129;BME280;68529;43.286;23.360;2024-01-07T06:03:58;97442.25;;;6.78;68.68
79129;BME280;68529;43.286;23.360;2024-01-07T06:06:24;97437.41;;;6.87;68.57
79129;BME280;68529;43.286;23.360;2024-01-07T06:08:49;97441.13;;;7.00;68.12
79129;BME280;68529;43.286;23.360;2024-01-07T06:11:14;97441.56;;;6.91;68.52
79129;BME280;68529;43.286;23.360;2024-01-07T06:13:45;97441.78;;;7.04;68.51
79129;BME280;68529;43.286;23.360;2024-01-07T06:16:10;97439.13;;;7.06;68.54
79129;BME280;68529;43.286;23.360;2024-01-07T06:18:36;97432.66;;;6.95;68.49
79129;BME280;68529;43.286;23.360;2024-01-07T06:21:01;97429.69;;;7.03;68.45
79129;BME280;68529;43.286;23.360;2024-01-07T06:23:27;97430.69;;;7.00;68.83
79129;BME280;68529;43.286;23.360;2024-01-07T06:25:52;97445.97;;;7.08;68.26
79129;BME280;68529;43.286;23.360;2024-01-07T06:28:18;97430.75;;;7.16;68.14
79129;BME280;68529;43.286;23.360;2024-01-07T06:30:43;97438.19;;;7.24;68.19
79129;BME280;68529;43.286;23.360;2024-01-07T06:33:09;97430.91;;;7.30;67.95
79129;BME280;68529;43.286;23.360;2024-01-07T06:35:34;97462.09;;;7.16;68.29
79129;BME280;68529;43.286;23.360;2024-01-07T06:37:59;97446.25;;;7.02;69.06
79129;BME280;68529;43.286;23.360;2024-01-07T06:40:25;97443.41;;;7.07;69.01
79129;BME280;68529;43.286;23.360;2024-01-07T06:42:51;97449.72;;;7.02;68.86
79129;BME280;68529;43.286;23.360;2024-01-07T06:45:16;97449.28;;;7.12;68.68
79129;BME280;68529;43.286;23.360;2024-01-07T06:47:42;97437.38;;;7.06;68.85
79129;BME280;68529;43.286;23.360;2024-01-07T06:50:09;97436.53;;;7.06;68.62
79129;BME280;68529;43.286;23.360;2024-01-07T06:52:35;97442.06;;;7.17;68.69
79129;BME280;68529;43.286;23.360;2024-01-07T06:55:00;97445.28;;;7.22;68.37
79129;BME280;68529;43.286;23.360;2024-01-07T06:57:26;97446.03;;;7.24;68.30
79129;BME280;68529;43.286;23.360;2024-01-07T06:59:51;97459.69;;;7.29;68.32
79129;BME280;68529;43.286;23.360;2024-01-07T07:02:17;97452.25;;;7.21;68.40
79129;BME280;68529;43.286;23.360;2024-01-07T07:04:42;97455.56;;;7.25;68.66
79129;BME280;68529;43.286;23.360;2024-01-07T07:07:08;97448.59;;;7.25;68.68
79129;BME280;68529;43.286;23.360;2024-01-07T07:09:33;97458.72;;;7.31;68.34
79129;BME280;68529;43.286;23.360;2024-01-07T07:11:59;97456.03;;;7.33;68.51
79129;BME280;68529;43.286;23.360;2024-01-07T07:14:25;97437.75;;;7.33;68.39
79129;BME280;68529;43.286;23.360;2024-01-07T07:16:50;97442.97;;;7.33;68.23
79129;BME280;68529;43.286;23.360;2024-01-07T07:19:15;97442.25;;;7.12;68.89
79129;BME280;68529;43.286;23.360;2024-01-07T07:21:43;97439.28;;;7.20;68.59
79129;BME280;68529;43.286;23.360;2024-01-07T07:24:09;97446.50;;;7.32;68.24
79129;BME280;68529;43.286;23.360;2024-01-07T07:26:34;97450.34;;;7.25;68.93
79129;BME280;68529;43.286;23.360;2024-01-07T07:29:01;97452.06;;;7.26;68.64
79129;BME280;68529;43.286;23.360;2024-01-07T07:31:27;97465.22;;;7.40;68.07
79129;BME280;68529;43.286;23.360;2024-01-07T07:33:52;97478.69;;;7.32;68.60
79129;BME280;68529;43.286;23.360;2024-01-07T07:36:18;97474.59;;;7.27;68.65
79129;BME280;68529;43.286;23.360;2024-01-07T07:38:43;97471.59;;;7.34;68.76
79129;BME280;68529;43.286;23.360;2024-01-07T07:41:09;97469.53;;;7.24;68.75
79129;BME280;68529;43.286;23.360;2024-01-07T07:43:34;97468.16;;;7.17;69.21
79129;BME280;68529;43.286;23.360;2024-01-07T07:45:59;97476.75;;;7.19;69.11
79129;BME280;68529;43.286;23.360;2024-01-07T07:48:26;97467.22;;;7.35;68.78
79129;BME280;68529;43.286;23.360;2024-01-07T07:50:53;97474.16;;;7.36;68.76
79129;BME280;68529;43.286;23.360;2024-01-07T07:53:18;97479.00;;;7.43;68.51
79129;BME280;68529;43.286;23.360;2024-01-07T07:55:44;97470.75;;;7.51;68.53
79129;BME280;68529;43.286;23.360;2024-01-07T07:58:09;97465.06;;;7.60;68.23
79129;BME280;68529;43.286;23.360;2024-01-07T08:00:35;97470.91;;;7.65;67.89
79129;BME280;68529;43.286;23.360;2024-01-07T08:03:00;97478.75;;;7.65;68.15
79129;BME280;68529;43.286;23.360;2024-01-07T08:05:26;97469.75;;;7.71;67.78
79129;BME280;68529;43.286;23.360;2024-01-07T08:07:51;97463.00;;;7.67;67.93
79129;BME280;68529;43.286;23.360;2024-01-07T08:10:17;97475.47;;;7.61;68.30
79129;BME280;68529;43.286;23.360;2024-01-07T08:12:42;97469.09;;;7.67;68.01
79129;BME280;68529;43.286;23.360;2024-01-07T08:15:08;97465.22;;;7.74;67.86
79129;BME280;68529;43.286;23.360;2024-01-07T08:17:33;97467.97;;;7.71;68.10
79129;BME280;68529;43.286;23.360;2024-01-07T08:19:58;97451.66;;;7.68;68.33
79129;BME280;68529;43.286;23.360;2024-01-07T08:22:24;97474.53;;;7.62;68.51
79129;BME280;68529;43.286;23.360;2024-01-07T08:24:50;97456.63;;;7.55;68.76
79129;BME280;68529;43.286;23.360;2024-01-07T08:27:15;97463.41;;;7.59;68.75
79129;BME280;68529;43.286;23.360;2024-01-07T08:29:44;97466.88;;;7.25;69.65
79129;BME280;68529;43.286;23.360;2024-01-07T08:32:09;97455.41;;;7.28;69.78
79129;BME280;68529;43.286;23.360;2024-01-07T08:34:35;97460.00;;;7.40;69.31
79129;BME280;68529;43.286;23.360;2024-01-07T08:37:00;97454.56;;;7.27;69.58
79129;BME280;68529;43.286;23.360;2024-01-07T08:39:25;97450.19;;;7.28;69.63
79129;BME280;68529;43.286;23.360;2024-01-07T08:41:51;97461.69;;;7.24;70.19
79129;BME280;68529;43.286;23.360;2024-01-07T08:44:16;97463.94;;;7.14;70.37
79129;BME280;68529;43.286;23.360;2024-01-07T08:46:42;97456.72;;;7.19;70.20
79129;BME280;68529;43.286;23.360;2024-01-07T08:49:07;97468.94;;;7.36;69.78
79129;BME280;68529;43.286;23.360;2024-01-07T08:51:33;97476.47;;;7.42;70.07
79129;BME280;68529;43.286;23.360;2024-01-07T08:53:58;97474.31;;;7.50;69.70
79129;BME280;68529;43.286;23.360;2024-01-07T08:56:24;97473.69;;;7.28;70.36
79129;BME280;68529;43.286;23.360;2024-01-07T08:58:50;97481.00;;;7.38;70.22
79129;BME280;68529;43.286;23.360;2024-01-07T09:01:17;97474.59;;;7.27;70.47
79129;BME280;68529;43.286;23.360;2024-01-07T09:03:42;97479.28;;;7.37;69.92
79129;BME280;68529;43.286;23.360;2024-01-07T09:06:08;97474.31;;;7.50;70.01
79129;BME280;68529;43.286;23.360;2024-01-07T09:08:34;97478.94;;;7.45;70.13
79129;BME280;68529;43.286;23.360;2024-01-07T09:11:00;97482.06;;;7.51;69.56
79129;BME280;68529;43.286;23.360;2024-01-07T09:13:26;97474.53;;;7.45;69.80
79129;BME280;68529;43.286;23.360;2024-01-07T09:15:52;97473.38;;;7.51;69.97
79129;BME280;68529;43.286;23.360;2024-01-07T09:18:17;97474.06;;;7.54;69.90
79129;BME280;68529;43.286;23.360;2024-01-07T09:20:43;97475.53;;;7.60;69.72
79129;BME280;68529;43.286;23.360;2024-01-07T09:23:09;97478.75;;;7.65;69.60
79129;BME280;68529;43.286;23.360;2024-01-07T09:25:34;97473.16;;;7.38;70.20
79129;BME280;68529;43.286;23.360;2024-01-07T09:28:00;97469.22;;;7.30;70.34
79129;BME280;68529;43.286;23.360;2024-01-07T09:30:25;97458.69;;;7.48;70.30
79129;BME280;68529;43.286;23.360;2024-01-07T09:32:51;97464.47;;;7.55;69.90
79129;BME280;68529;43.286;23.360;2024-01-07T09:35:16;97451.34;;;7.56;69.63
79129;BME280;68529;43.286;23.360;2024-01-07T09:37:42;97462.09;;;7.33;70.23
79129;BME280;68529;43.286;23.360;2024-01-07T09:40:08;97453.81;;;7.42;70.28
79129;BME280;68529;43.286;23.360;2024-01-07T09:42:33;97455.88;;;7.53;70.00
79129;BME280;68529;43.286;23.360;2024-01-07T09:45:03;97455.94;;;7.69;69.81
79129;BME280;68529;43.286;23.360;2024-01-07T09:47:31;97448.50;;;7.61;70.29
79129;BME280;68529;43.286;23.360;2024-01-07T09:49:57;97458.09;;;7.60;69.97
79129;BME280;68529;43.286;23.360;2024-01-07T09:52:23;97451.41;;;7.72;69.41
79129;BME280;68529;43.286;23.360;2024-01-07T09:54:51;97453.16;;;7.72;69.54
79129;BME280;68529;43.286;23.360;2024-01-07T09:57:18;97448.41;;;7.62;69.80
79129;BME280;68529;43.286;23.360;2024-01-07T09:59:43;97453.84;;;7.75;69.82
79129;BME280;68529;43.286;23.360;2024-01-07T10:02:10;97442.84;;;7.86;69.76
79129;BME280;68529;43.286;23.360;2024-01-07T10:04:35;97437.19;;;7.93;69.12
79129;BME280;68529;43.286;23.360;2024-01-07T10:07:00;97428.19;;;7.99;68.98
79129;BME280;68529;43.286;23.360;2024-01-07T10:09:30;97425.19;;;8.06;68.79
79129;BME280;68529;43.286;23.360;2024-01-07T10:11:57;97420.44;;;8.13;68.81
79129;BME280;68529;43.286;23.360;2024-01-07T10:14:23;97409.88;;;7.99;69.35
79129;BME280;68529;43.286;23.360;2024-01-07T10:16:50;97407.09;;;7.86;69.42
79129;BME280;68529;43.286;23.360;2024-01-07T10:19:22;97405.41;;;7.85;69.78
79129;BME280;68529;43.286;23.360;2024-01-07T10:22:04;97397.06;;;7.94;69.42
79129;BME280;68529;43.286;23.360;2024-01-07T10:24:37;97385.34;;;7.86;69.43
79129;BME280;68529;43.286;23.360;2024-01-07T10:27:04;97394.47;;;7.94;69.25
79129;BME280;68529;43.286;23.360;2024-01-07T10:29:30;97384.75;;;7.96;69.56
79129;BME280;68529;43.286;23.360;2024-01-07T10:31:59;97372.06;;;8.06;68.87
79129;BME280;68529;43.286;23.360;2024-01-07T10:34:29;97378.13;;;8.06;69.50
79129;BME280;68529;43.286;23.360;2024-01-07T10:36:56;97366.41;;;8.29;69.06
79129;BME280;68529;43.286;23.360;2024-01-07T10:39:23;97365.06;;;8.53;68.58
79129;BME280;68529;43.286;23.360;2024-01-07T10:41:50;97356.34;;;8.68;68.21
79129;BME280;68529;43.286;23.360;2024-01-07T10:44:15;97367.19;;;8.92;67.94
79129;BME280;68529;43.286;23.360;2024-01-07T10:46:41;97341.66;;;9.25;67.50
79129;BME280;68529;43.286;23.360;2024-01-07T10:49:20;97340.00;;;9.67;66.68
79129;BME280;68529;43.286;23.360;2024-01-07T10:51:55;97337.34;;;10.09;66.27
79129;BME280;68529;43.286;23.360;2024-01-07T10:54:23;97350.91;;;10.44;65.06
79129;BME280;68529;43.286;23.360;2024-01-07T10:56:58;97340.78;;;10.91;64.25
79129;BME280;68529;43.286;23.360;2024-01-07T10:59:23;97335.69;;;11.28;63.43
79129;BME280;68529;43.286;23.360;2024-01-07T11:01:49;97332.41;;;11.24;63.27
79129;BME280;68529;43.286;23.360;2024-01-07T11:04:22;97332.78;;;11.05;63.39
79129;BME280;68529;43.286;23.360;2024-01-07T11:06:55;97335.25;;;11.21;63.53
79129;BME280;68529;43.286;23.360;2024-01-07T11:11:55;97323.09;;;11.71;62.34
79129;BME280;68529;43.286;23.360;2024-01-07T11:14:38;97322.31;;;11.94;62.14
79129;BME280;68529;43.286;23.360;2024-01-07T11:17:05;97324.63;;;11.98;62.19
79129;BME280;68529;43.286;23.360;2024-01-07T11:19:31;97323.13;;;12.43;61.11
79129;BME280;68529;43.286;23.360;2024-01-07T11:22:22;97326.09;;;12.62;60.10
79129;BME280;68529;43.286;23.360;2024-01-07T11:24:48;97325.13;;;12.87;60.13
79129;BME280;68529;43.286;23.360;2024-01-07T11:27:15;97329.97;;;13.17;59.12
79129;BME280;68529;43.286;23.360;2024-01-07T11:29:41;97333.81;;;13.24;59.13
79129;BME280;68529;43.286;23.360;2024-01-07T11:32:06;97337.03;;;12.69;60.36
79129;BME280;68529;43.286;23.360;2024-01-07T11:34:43;97335.41;;;12.55;60.47
79129;BME280;68529;43.286;23.360;2024-01-07T11:37:11;97328.00;;;12.60;60.40
79129;BME280;68529;43.286;23.360;2024-01-07T11:39:38;97331.66;;;12.70;60.56
79129;BME280;68529;43.286;23.360;2024-01-07T11:42:04;97330.94;;;12.92;60.06
79129;BME280;68529;43.286;23.360;2024-01-07T11:44:29;97325.69;;;13.03;60.44
79129;BME280;68529;43.286;23.360;2024-01-07T11:46:58;97328.66;;;12.99;60.15
79129;BME280;68529;43.286;23.360;2024-01-07T11:49:23;97328.66;;;12.99;59.68
79129;BME280;68529;43.286;23.360;2024-01-07T11:51:49;97327.13;;;12.72;60.49
79129;BME280;68529;43.286;23.360;2024-01-07T11:54:14;97339.78;;;12.44;60.97
79129;BME280;68529;43.286;23.360;2024-01-07T11:56:40;97333.66;;;12.43;61.12
79129;BME280;68529;43.286;23.360;2024-01-07T11:59:05;97338.19;;;12.65;61.04
79129;BME280;68529;43.286;23.360;2024-01-07T12:01:31;97334.69;;;13.01;60.16
79129;BME280;68529;43.286;23.360;2024-01-07T12:03:57;97331.56;;;13.41;59.75
79129;BME280;68529;43.286;23.360;2024-01-07T12:06:22;97331.44;;;13.43;59.51
79129;BME280;68529;43.286;23.360;2024-01-07T12:08:47;97332.31;;;13.66;58.77
79129;BME280;68529;43.286;23.360;2024-01-07T12:11:14;97316.75;;;13.74;58.74
79129;BME280;68529;43.286;23.360;2024-01-07T12:13:40;97324.09;;;13.92;58.74
79129;BME280;68529;43.286;23.360;2024-01-07T12:16:06;97326.47;;;13.84;58.74
79129;BME280;68529;43.286;23.360;2024-01-07T12:18:32;97333.28;;;13.54;59.28
79129;BME280;68529;43.286;23.360;2024-01-07T12:20:59;97334.94;;;13.43;58.25
79129;BME280;68529;43.286;23.360;2024-01-07T12:23:25;97334.56;;;13.26;58.59
79129;BME280;68529;43.286;23.360;2024-01-07T12:25:52;97331.09;;;13.36;59.08
79129;BME280;68529;43.286;23.360;2024-01-07T12:28:17;97336.00;;;13.41;59.37
79129;BME280;68529;43.286;23.360;2024-01-07T12:30:49;97341.44;;;13.51;58.64
79129;BME280;68529;43.286;23.360;2024-01-07T12:33:19;97345.66;;;13.18;58.89
79129;BME280;68529;43.286;23.360;2024-01-07T12:35:47;97349.88;;;12.97;59.51
79129;BME280;68529;43.286;23.360;2024-01-07T12:38:13;97350.25;;;12.80;59.96
79129;BME280;68529;43.286;23.360;2024-01-07T12:40:39;97356.81;;;12.74;60.35
79129;BME280;68529;43.286;23.360;2024-01-07T12:43:05;97359.97;;;12.56;60.53
79129;BME280;68529;43.286;23.360;2024-01-07T12:45:34;97362.47;;;12.34;60.86
79129;BME280;68529;43.286;23.360;2024-01-07T12:47:59;97364.72;;;12.02;60.60
79129;BME280;68529;43.286;23.360;2024-01-07T12:50:28;97367.81;;;11.83;61.32
79129;BME280;68529;43.286;23.360;2024-01-07T12:52:55;97368.72;;;11.57;62.20
79129;BME280;68529;43.286;23.360;2024-01-07T12:55:21;97371.53;;;11.54;62.74